Flight Track Log - Related Links

Times and Time Zones

All times are in EDT time to prevent confusion due to time zone crossing. See the TAM8042 flight status page for this flight to view local times or setup timezone preferences in your user account.

Time Position Orientation Groundspeed Altitude Reporting Facility
EDT Latitude Longitude Course Direction KTS MPH feet Rate Location/Type
Fri 10:58:57 PM -15.9070 -47.8580 86° East 140 161 6,800  Level FlightAware ADS-B
Fri 10:59:27 PM -15.9170 -47.8300 110° East 238 274 7,300 1,855 Climbing FlightAware ADS-B
Fri 10:59:52 PM -15.8980 -47.8060 51° Northeast 245 282 8,500 2,100 Climbing FlightAware ADS-B
Fri 11:00:07 PM -15.8870 -47.8020 19° North 279 321 8,700 300 Climbing FlightAware ADS-B
Fri 11:00:32 PM -15.8560 -47.7940 14° North 279 321 8,700 2,743 Level FlightAware ADS-B
Fri 11:01:17 PM -15.7880 -47.7880 North 322 371 11,900 2,455 Climbing FlightAware ADS-B
Fri 11:02:22 PM -15.6890 -47.7750 North 353 406 13,200 1,617 Climbing FlightAware ADS-B
Fri 11:03:12 PM -15.5990 -47.7630 North 388 447 15,000 3,040 Climbing FlightAware ADS-B
Fri 11:03:37 PM -15.5490 -47.7790 343° North 410 472 17,000 3,900 Climbing FlightAware ADS-B
Fri 11:03:52 PM -15.5250 -47.8030 316° Northwest 422 486 17,600 2,836 Climbing FlightAware ADS-B
Fri 11:04:32 PM -15.4880 -47.8790 297° West 424 488 19,600 2,640 Climbing FlightAware ADS-B
Fri 11:05:07 PM -15.4580 -47.9450 295° West 432 497 20,900 2,118 Climbing FlightAware ADS-B
Fri 11:05:57 PM -15.4170 -48.0330 296° West 441 507 22,600 1,958 Climbing FlightAware ADS-B
Fri 11:06:42 PM -15.3490 -48.0970 318° Northwest 450 518 24,000 1,835 Climbing FlightAware ADS-B
Fri 11:07:22 PM -15.2760 -48.1430 329° Northwest 459 528 25,200 1,875 Climbing FlightAware ADS-B
Fri 11:08:02 PM -15.2030 -48.1900 328° Northwest 466 536 26,500 1,835 Climbing FlightAware ADS-B
Fri 11:08:47 PM -15.1180 -48.2440 328° Northwest 473 544 27,800 1,765 Climbing FlightAware ADS-B
Fri 11:09:27 PM -15.0450 -48.2900 329° Northwest 474 545 29,000 1,950 Climbing FlightAware ADS-B
Fri 11:10:07 PM -14.9690 -48.3370 329° Northwest 470 541 30,400 1,835 Climbing FlightAware ADS-B
Fri 11:10:52 PM -14.8840 -48.3900 329° Northwest 474 545 31,600 662 Climbing FlightAware ADS-B
Fri 11:12:32 PM -14.6910 -48.4580 341° North 488 562 32,000 192 Climbing FlightAware ADS-B
Fri 11:12:57 PM -14.6090 -48.4570 North 487 560 32,000 429 Level FlightAware ADS-B
Fri 11:13:42 PM -14.5120 -48.4380 11° North 480 552 32,500 660 Climbing FlightAware ADS-B
Fri 11:14:37 PM -14.3980 -48.4280 North 476 548 33,100 574 Climbing FlightAware ADS-B
Fri 11:15:37 PM -14.2700 -48.4620 346° North 474 545 33,600 273 Climbing FlightAware ADS-B
Fri 11:16:27 PM -14.1810 -48.4880 344° North 474 545 33,600  Level FlightAware ADS-B
Fri 11:17:07 PM -14.1090 -48.5090 344° North 474 545 33,600 1,011 Level FlightAware ADS-B
Fri 11:18:02 PM -13.9860 -48.5850 329° Northwest 476 548 35,200 914 Climbing FlightAware ADS-B
Fri 11:18:52 PM -13.8990 -48.6210 338° Northwest 476 548 35,200 533 Level FlightAware ADS-B
Fri 11:19:32 PM -13.7940 -48.6620 339° North 480 552 36,000 600 Climbing FlightAware ADS-B
Fri 11:20:12 PM -13.7240 -48.6910 338° Northwest 480 552 36,000  Level FlightAware ADS-B
Fri 11:21:07 PM -13.6230 -48.7620 326° Northwest 483 556 36,000  Level FlightAware ADS-B
Fri 11:21:47 PM -13.5600 -48.8050 326° Northwest 483 556 36,000  Level FlightAware ADS-B
Fri 11:22:27 PM -13.4970 -48.8490 326° Northwest 483 556 36,000  Level FlightAware ADS-B
Fri 11:23:17 PM -13.4180 -48.9040 326° Northwest 483 556 36,000  Level FlightAware ADS-B
Fri 11:23:57 PM -13.3550 -48.9470 326° Northwest 483 556 36,000  Level FlightAware ADS-B
Fri 11:24:37 PM -13.2920 -48.9910 326° Northwest 483 556 36,000  Level FlightAware ADS-B
Fri 11:25:17 PM -13.2290 -49.0350 326° Northwest 483 556 36,000  Level FlightAware ADS-B
Fri 11:25:57 PM -13.1660 -49.0780 326° Northwest 483 556 36,000  Level FlightAware ADS-B
Fri 11:26:47 PM -13.0870 -49.1330 326° Northwest 483 556 36,000  Level FlightAware ADS-B
Fri 11:27:27 PM -13.0240 -49.1760 326° Northwest 483 556 36,000  Level FlightAware ADS-B
Fri 11:28:07 PM -12.9610 -49.2200 326° Northwest 483 556 36,000  Level FlightAware ADS-B
Fri 11:28:47 PM -12.8980 -49.2630 326° Northwest 483 556 36,000  Level FlightAware ADS-B
Fri 11:29:27 PM -12.8350 -49.3070 326° Northwest 483 556 36,000  Level FlightAware ADS-B
Fri 11:30:17 PM -12.7560 -49.3620 326° Northwest 483 556 36,000  Level FlightAware ADS-B
Fri 11:32:00 PM -12.5855 -49.4978 322° Northwest  Level Estimated
Fri 11:33:00 PM -12.4861 -49.5769 322° Northwest  Level Estimated
Fri 11:34:00 PM -12.3868 -49.6559 322° Northwest  Level Estimated
Fri 11:35:00 PM -12.2874 -49.7348 322° Northwest  Level Estimated
Fri 11:36:00 PM -12.1880 -49.8137 322° Northwest  Level Estimated
Fri 11:36:12 PM -11.9030 -49.8870 322° Northwest 483 556 36,000  Level FlightAware ADS-B
Fri 11:36:57 PM -11.8200 -49.9410 328° Northwest 483 556 36,000  Level FlightAware ADS-B
Fri 11:37:42 PM -11.7430 -49.9910 328° Northwest 483 556 36,000  Level FlightAware ADS-B
Fri 11:38:22 PM -11.6790 -50.0340 327° Northwest 483 556 36,000  Level FlightAware ADS-B
Fri 11:39:02 PM -11.7590 -49.9810 147° Southeast 483 556 36,000  Level FlightAware ADS-B
Fri 11:39:52 PM -11.6790 -50.0340 327° Northwest 483 556 36,000  Level FlightAware ADS-B
Fri 11:40:32 PM -11.6150 -50.0760 327° Northwest 483 556 36,000  Level FlightAware ADS-B
Fri 11:41:12 PM -11.5510 -50.1180 327° Northwest 483 556 36,000  Level FlightAware ADS-B
Fri 11:41:27 PM -11.8030 -49.9510 147° Southeast 36,000  Level FlightAware ADS-B
Fri 11:42:12 PM -11.2270 -50.3230 328° Northwest 483 556 36,000  Level FlightAware ADS-B
Fri 11:42:47 PM -11.1580 -50.3680 327° Northwest 483 556 36,000  Level FlightAware ADS-B
Fri 11:44:42 PM -11.0650 -50.4280 328° Northwest 484 557 36,000  Level FlightAware ADS-B
Fri 11:45:22 PM -11.0010 -50.4700 327° Northwest 484 557 36,000  Level FlightAware ADS-B
Fri 11:46:07 PM -11.1070 -50.4000 147° Southeast 36,000  Level FlightAware ADS-B
Fri 11:48:00 PM -10.9199 -50.5481 322° Northwest  Level Estimated
Fri 11:49:00 PM -10.8205 -50.6266 322° Northwest  Level Estimated
Fri 11:50:00 PM -10.7211 -50.7051 322° Northwest  Level Estimated
Fri 11:51:00 PM -10.6217 -50.7835 322° Northwest  Level Estimated
Fri 11:52:00 PM -10.5222 -50.8619 322° Northwest  Level Estimated
Fri 11:53:00 PM -10.4228 -50.9403 322° Northwest  Level Estimated
Fri 11:54:00 PM -10.3233 -51.0186 322° Northwest  Level Estimated
Fri 11:55:00 PM -10.2238 -51.0968 322° Northwest  Level Estimated
Fri 11:56:00 PM -10.1243 -51.1750 322° Northwest  Level Estimated
Fri 11:57:00 PM -10.0247 -51.2531 322° Northwest  Level Estimated
Fri 11:58:00 PM -9.9252 -51.3312 322° Northwest  Level Estimated
Fri 11:59:00 PM -9.8256 -51.4092 322° Northwest  Level Estimated
Sat 12:00:00 AM -9.7260 -51.4873 322° Northwest  Level Estimated
Sat 12:01:00 AM -9.6264 -51.5652 322° Northwest  Level Estimated
Sat 12:02:00 AM -9.5268 -51.6431 322° Northwest  Level Estimated
Sat 12:03:00 AM -9.4271 -51.7210 322° Northwest  Level Estimated
Sat 12:04:00 AM -9.3275 -51.7988 322° Northwest  Level Estimated
Sat 12:05:00 AM -9.2278 -51.8765 322° Northwest  Level Estimated
Sat 12:06:00 AM -9.1281 -51.9543 322° Northwest  Level Estimated
Sat 12:07:00 AM -9.0284 -52.0319 322° Northwest  Level Estimated
Sat 12:08:00 AM -8.9287 -52.1096 322° Northwest  Level Estimated
Sat 12:09:00 AM -8.8289 -52.1872 322° Northwest  Level Estimated
Sat 12:10:00 AM -8.7292 -52.2647 322° Northwest  Level Estimated
Sat 12:11:00 AM -8.6294 -52.3422 322° Northwest  Level Estimated
Sat 12:12:00 AM -8.5296 -52.4197 322° Northwest  Level Estimated
Sat 12:13:00 AM -8.4335 -52.4943 322° Northwest  Level Estimated
Sat 12:14:00 AM -8.3375 -52.5687 323° Northwest  Level Estimated
Sat 12:15:00 AM -8.2414 -52.6432 323° Northwest  Level Estimated
Sat 12:16:00 AM -8.1452 -52.7176 323° Northwest  Level Estimated
Sat 12:17:00 AM -8.0491 -52.7920 323° Northwest  Level Estimated
Sat 12:18:00 AM -7.9530 -52.8664 323° Northwest  Level Estimated
Sat 12:19:00 AM -7.8568 -52.9407 323° Northwest  Level Estimated
Sat 12:20:00 AM -7.7606 -53.0150 323° Northwest  Level Estimated
Sat 12:21:00 AM -7.6645 -53.0892 323° Northwest  Level Estimated
Sat 12:22:00 AM -7.5683 -53.1635 323° Northwest  Level Estimated
Sat 12:23:00 AM -7.4721 -53.2377 323° Northwest  Level Estimated
Sat 12:24:00 AM -7.3758 -53.3118 323° Northwest  Level Estimated
Sat 12:25:00 AM -7.2796 -53.3859 323° Northwest  Level Estimated
Sat 12:26:00 AM -7.1834 -53.4600 323° Northwest  Level Estimated
Sat 12:27:00 AM -7.0871 -53.5341 323° Northwest  Level Estimated
Sat 12:28:00 AM -6.9908 -53.6081 323° Northwest  Level Estimated
Sat 12:29:00 AM -6.8945 -53.6821 323° Northwest  Level Estimated
Sat 12:30:00 AM -6.7983 -53.7561 323° Northwest  Level Estimated
Sat 12:31:00 AM -6.7020 -53.8300 323° Northwest  Level Estimated
Sat 12:32:00 AM -6.6056 -53.9039 323° Northwest  Level Estimated
Sat 12:33:00 AM -6.5093 -53.9778 323° Northwest  Level Estimated
Sat 12:34:00 AM -6.4130 -54.0517 323° Northwest  Level Estimated
Sat 12:35:00 AM -6.3167 -54.1255 323° Northwest  Level Estimated
Sat 12:36:00 AM -6.2203 -54.1993 323° Northwest  Level Estimated
Sat 12:37:00 AM -6.1239 -54.2730 323° Northwest  Level Estimated
Sat 12:38:00 AM -6.0276 -54.3468 323° Northwest  Level Estimated
Sat 12:39:00 AM -5.9312 -54.4205 323° Northwest  Level Estimated
Sat 12:40:00 AM -5.8348 -54.4942 323° Northwest  Level Estimated
Sat 12:41:00 AM -5.7384 -54.5678 323° Northwest  Level Estimated
Sat 12:42:00 AM -5.6420 -54.6415 323° Northwest  Level Estimated
Sat 12:43:00 AM -5.5455 -54.7151 323° Northwest  Level Estimated
Sat 12:44:00 AM -5.4491 -54.7887 323° Northwest  Level Estimated
Sat 12:45:00 AM -5.3527 -54.8623 323° Northwest  Level Estimated
Sat 12:46:00 AM -5.2562 -54.9358 323° Northwest  Level Estimated
Sat 12:47:00 AM -5.1598 -55.0093 323° Northwest  Level Estimated
Sat 12:48:00 AM -5.0633 -55.0828 323° Northwest  Level Estimated
Sat 12:49:00 AM -4.9668 -55.1563 323° Northwest  Level Estimated
Sat 12:50:00 AM -4.8703 -55.2298 323° Northwest  Level Estimated
Sat 12:51:00 AM -4.7738 -55.3032 323° Northwest  Level Estimated
Sat 12:52:00 AM -4.6774 -55.3766 323° Northwest  Level Estimated
Sat 12:53:00 AM -4.5808 -55.4500 323° Northwest  Level Estimated
Sat 12:54:00 AM -4.4843 -55.5234 323° Northwest  Level Estimated
Sat 12:55:00 AM -4.3878 -55.5967 323° Northwest  Level Estimated
Sat 12:56:00 AM -4.2913 -55.6701 323° Northwest  Level Estimated
Sat 12:57:00 AM -4.1947 -55.7434 323° Northwest  Level Estimated
Sat 12:58:00 AM -4.0982 -55.8167 323° Northwest  Level Estimated
Sat 12:59:00 AM -4.0016 -55.8899 323° Northwest  Level Estimated
Sat 01:00:00 AM -3.9051 -55.9632 323° Northwest  Level Estimated
Sat 01:01:00 AM -3.8085 -56.0365 323° Northwest  Level Estimated
Sat 01:02:00 AM -3.7120 -56.1097 323° Northwest  Level Estimated
Sat 01:03:00 AM -3.6154 -56.1829 323° Northwest  Level Estimated
Sat 01:04:00 AM -3.5188 -56.2561 323° Northwest  Level Estimated
Sat 01:05:00 AM -3.4222 -56.3293 323° Northwest  Level Estimated
Sat 01:06:00 AM -3.3256 -56.4025 323° Northwest  Level Estimated
Sat 01:07:00 AM -3.2290 -56.4756 323° Northwest  Level Estimated
Sat 01:08:00 AM -3.1324 -56.5487 323° Northwest  Level Estimated
Sat 01:09:00 AM -3.0358 -56.6219 323° Northwest  Level Estimated
Sat 01:10:00 AM -2.9392 -56.6950 323° Northwest  Level Estimated
Sat 01:11:00 AM -2.8426 -56.7681 323° Northwest  Level Estimated
Sat 01:12:00 AM -2.7460 -56.8412 323° Northwest  Level Estimated
Sat 01:13:00 AM -2.6493 -56.9142 323° Northwest  Level Estimated
Sat 01:14:00 AM -2.5527 -56.9873 323° Northwest  Level Estimated
Sat 01:15:00 AM -2.4561 -57.0604 323° Northwest  Level Estimated
Sat 01:16:00 AM -2.3594 -57.1334 323° Northwest  Level Estimated
Sat 01:17:00 AM -2.2628 -57.2064 323° Northwest  Level Estimated
Sat 01:18:00 AM -2.1662 -57.2795 323° Northwest  Level Estimated
Sat 01:19:00 AM -2.0695 -57.3525 323° Northwest  Level Estimated
Sat 01:20:00 AM -1.9728 -57.4255 323° Northwest  Level Estimated
Sat 01:21:00 AM -1.8762 -57.4985 323° Northwest  Level Estimated
Sat 01:22:00 AM -1.7795 -57.5715 323° Northwest  Level Estimated
Sat 01:23:00 AM -1.6829 -57.6445 323° Northwest  Level Estimated
Sat 01:24:00 AM -1.5862 -57.7174 323° Northwest  Level Estimated
Sat 01:25:00 AM -1.4895 -57.7904 323° Northwest  Level Estimated
Sat 01:26:00 AM -1.3929 -57.8633 323° Northwest  Level Estimated
Sat 01:27:00 AM -1.2962 -57.9363 323° Northwest  Level Estimated
Sat 01:28:00 AM -1.1995 -58.0093 323° Northwest  Level Estimated
Sat 01:29:00 AM -1.1028 -58.0822 323° Northwest  Level Estimated
Sat 01:30:00 AM -1.0062 -58.1551 323° Northwest  Level Estimated
Sat 01:31:00 AM -0.9095 -58.2281 323° Northwest  Level Estimated
Sat 01:32:00 AM -0.8128 -58.3010 323° Northwest  Level Estimated
Sat 01:33:00 AM -0.7161 -58.3739 323° Northwest  Level Estimated
Sat 01:34:00 AM -0.6194 -58.4469 323° Northwest  Level Estimated
Sat 01:35:00 AM -0.5228 -58.5198 323° Northwest  Level Estimated
Sat 01:36:00 AM -0.4261 -58.5927 323° Northwest  Level Estimated
Sat 01:37:00 AM -0.3294 -58.6656 323° Northwest  Level Estimated
Sat 01:38:00 AM -0.2327 -58.7385 323° Northwest  Level Estimated
Sat 01:39:00 AM -0.1360 -58.8115 323° Northwest  Level Estimated
Sat 01:40:00 AM -0.0393 -58.8844 323° Northwest  Level Estimated
Sat 01:41:00 AM 0.0574 -58.9573 323° Northwest  Level Estimated
Sat 01:42:00 AM 0.1541 -59.0302 323° Northwest  Level Estimated
Sat 01:43:00 AM 0.2508 -59.1031 323° Northwest  Level Estimated
Sat 01:44:00 AM 0.3474 -59.1761 323° Northwest  Level Estimated
Sat 01:45:00 AM 0.4441 -59.2490 323° Northwest  Level Estimated
Sat 01:46:00 AM 0.5408 -59.3219 323° Northwest  Level Estimated
Sat 01:47:00 AM 0.6375 -59.3948 323° Northwest  Level Estimated
Sat 01:48:00 AM 0.7342 -59.4678 323° Northwest  Level Estimated
Sat 01:49:00 AM 0.8309 -59.5407 323° Northwest  Level Estimated
Sat 01:50:00 AM 0.9275 -59.6136 323° Northwest  Level Estimated
Sat 01:51:00 AM 1.0242 -59.6866 323° Northwest  Level Estimated
Sat 01:52:00 AM 1.1209 -59.7595 323° Northwest  Level Estimated
Sat 01:53:00 AM 1.2176 -59.8325 323° Northwest  Level Estimated
Sat 01:54:00 AM 1.3142 -59.9054 323° Northwest  Level Estimated
Sat 01:55:00 AM 1.4109 -59.9784 323° Northwest  Level Estimated
Sat 01:56:00 AM 1.5076 -60.0513 323° Northwest  Level Estimated
Sat 01:57:00 AM 1.6043 -60.1243 323° Northwest  Level Estimated
Sat 01:58:00 AM 1.7009 -60.1973 323° Northwest  Level Estimated
Sat 01:59:00 AM 1.7976 -60.2702 323° Northwest  Level Estimated
Sat 02:00:00 AM 1.8942 -60.3432 323° Northwest  Level Estimated
Sat 02:01:00 AM 1.9909 -60.4162 323° Northwest  Level Estimated
Sat 02:02:00 AM 2.0875 -60.4893 323° Northwest  Level Estimated
Sat 02:03:00 AM 2.1842 -60.5623 323° Northwest  Level Estimated
Sat 02:04:00 AM 2.2808 -60.6353 323° Northwest  Level Estimated
Sat 02:05:00 AM 2.3775 -60.7083 323° Northwest  Level Estimated
Sat 02:06:00 AM 2.4741 -60.7814 323° Northwest  Level Estimated
Sat 02:07:00 AM 2.5708 -60.8545 323° Northwest  Level Estimated
Sat 02:08:00 AM 2.6674 -60.9275 323° Northwest  Level Estimated
Sat 02:09:00 AM 2.7640 -61.0006 323° Northwest  Level Estimated
Sat 02:10:00 AM 2.8606 -61.0737 323° Northwest  Level Estimated
Sat 02:11:00 AM 2.9573 -61.1468 323° Northwest  Level Estimated
Sat 02:12:00 AM 3.0539 -61.2199 323° Northwest  Level Estimated
Sat 02:13:00 AM 3.1505 -61.2930 323° Northwest  Level Estimated
Sat 02:14:00 AM 3.2471 -61.3662 323° Northwest  Level Estimated
Sat 02:15:00 AM 3.3437 -61.4393 323° Northwest  Level Estimated
Sat 02:16:00 AM 3.4403 -61.5125 323° Northwest  Level Estimated
Sat 02:17:00 AM 3.5369 -61.5857 323° Northwest  Level Estimated
Sat 02:18:00 AM 3.6334 -61.6589 323° Northwest  Level Estimated
Sat 02:19:00 AM 3.7300 -61.7321 323° Northwest  Level Estimated
Sat 02:20:00 AM 3.8266 -61.8054 323° Northwest  Level Estimated
Sat 02:21:00 AM 3.9231 -61.8786 323° Northwest  Level Estimated
Sat 02:22:00 AM 4.0197 -61.9519 323° Northwest  Level Estimated
Sat 02:23:00 AM 4.1162 -62.0252 323° Northwest  Level Estimated
Sat 02:24:00 AM 4.2128 -62.0984 323° Northwest  Level Estimated
Sat 02:25:00 AM 4.3093 -62.1718 323° Northwest  Level Estimated
Sat 02:26:00 AM 4.4058 -62.2451 323° Northwest  Level Estimated
Sat 02:27:00 AM 4.5024 -62.3185 323° Northwest  Level Estimated
Sat 02:28:00 AM 4.5989 -62.3918 323° Northwest  Level Estimated
Sat 02:29:00 AM 4.6954 -62.4652 323° Northwest  Level Estimated
Sat 02:30:00 AM 4.7919 -62.5387 323° Northwest  Level Estimated
Sat 02:31:00 AM 4.8884 -62.6121 323° Northwest  Level Estimated
Sat 02:32:00 AM 4.9848 -62.6856 323° Northwest  Level Estimated
Sat 02:33:00 AM 5.0813 -62.7590 323° Northwest  Level Estimated
Sat 02:34:00 AM 5.1778 -62.8326 323° Northwest  Level Estimated
Sat 02:35:00 AM 5.2743 -62.9061 323° Northwest  Level Estimated
Sat 02:36:00 AM 5.3707 -62.9796 323° Northwest  Level Estimated
Sat 02:37:00 AM 5.4671 -63.0532 323° Northwest  Level Estimated
Sat 02:38:00 AM 5.5636 -63.1268 323° Northwest  Level Estimated
Sat 02:39:00 AM 5.6600 -63.2004 323° Northwest  Level Estimated
Sat 02:40:00 AM 5.7564 -63.2741 323° Northwest  Level Estimated
Sat 02:41:00 AM 5.8528 -63.3477 323° Northwest  Level Estimated
Sat 02:42:00 AM 5.9492 -63.4214 323° Northwest  Level Estimated
Sat 02:43:00 AM 6.0456 -63.4951 323° Northwest  Level Estimated
Sat 02:44:00 AM 6.1419 -63.5689 323° Northwest  Level Estimated
Sat 02:45:00 AM 6.2383 -63.6427 323° Northwest  Level Estimated
Sat 02:46:00 AM 6.3347 -63.7165 323° Northwest  Level Estimated
Sat 02:47:00 AM 6.4310 -63.7903 323° Northwest  Level Estimated
Sat 02:48:00 AM 6.5273 -63.8642 323° Northwest  Level Estimated
Sat 02:49:00 AM 6.6229 -63.9375 323° Northwest  Level Estimated
Sat 02:50:00 AM 6.7185 -64.0108 323° Northwest  Level Estimated
Sat 02:51:00 AM 6.8141 -64.0842 323° Northwest  Level Estimated
Sat 02:52:00 AM 6.9097 -64.1577 323° Northwest  Level Estimated
Sat 02:53:00 AM 7.0052 -64.2311 323° Northwest  Level Estimated
Sat 02:54:00 AM 7.1008 -64.3046 323° Northwest  Level Estimated
Sat 02:55:00 AM 7.1963 -64.3781 323° Northwest  Level Estimated
Sat 02:56:00 AM 7.2918 -64.4516 323° Northwest  Level Estimated
Sat 02:57:00 AM 7.3873 -64.5252 323° Northwest  Level Estimated
Sat 02:57:57 AM 11.8180 -62.0220 323° Northwest 472 543 36,000  Level FlightAware ADS-B
Sat 02:58:00 AM 7.4828 -64.5988 323° Northwest  Level Estimated
Sat 02:59:00 AM 7.5783 -64.6724 323° Northwest  Level Estimated
Sat 02:59:07 AM 11.9450 -62.1060 327° Northwest 472 543 36,000  Level FlightAware ADS-B
Sat 02:59:47 AM 12.0250 -62.1580 328° Northwest 469 540 36,000  Level FlightAware ADS-B
Sat 03:00:27 AM 11.9680 -62.1210 148° Southeast 469 540 36,000  Level FlightAware ADS-B
Sat 03:01:07 AM 12.0300 -62.1620 327° Northwest 469 540 36,000  Level FlightAware ADS-B
Sat 03:01:57 AM 12.2610 -62.3140 327° Northwest 467 537 36,000  Level FlightAware ADS-B
Sat 03:02:37 AM 12.3330 -62.3610 327° Northwest 466 536 36,000  Level FlightAware ADS-B
Sat 03:03:32 AM 12.4340 -62.4280 327° Northwest 467 537 36,000  Level FlightAware ADS-B
Sat 03:04:07 AM 12.3180 -62.3520 147° Southeast 467 537 36,000  Level FlightAware ADS-B
Sat 03:04:57 AM 12.5900 -62.5310 327° Northwest 469 540 36,000  Level FlightAware ADS-B
Sat 03:05:42 AM 12.6700 -62.5840 327° Northwest 469 540 36,000  Level FlightAware ADS-B
Sat 03:06:37 AM 12.6340 -62.5600 147° Southeast 469 540 36,000  Level FlightAware ADS-B
Sat 03:07:12 AM 12.8350 -62.6930 327° Northwest 469 540 36,000  Level FlightAware ADS-B
Sat 03:08:02 AM 12.7370 -62.6290 148° Southeast 469 540 36,000  Level FlightAware ADS-B
Sat 03:08:57 AM 13.0190 -62.8160 327° Northwest 466 536 36,000  Level FlightAware ADS-B
Sat 03:09:42 AM 13.1090 -62.8750 327° Northwest 466 536 36,000  Level FlightAware ADS-B
Sat 03:10:22 AM 13.1800 -62.9230 327° Northwest 466 536 36,000  Level FlightAware ADS-B
Sat 03:11:02 AM 13.2500 -62.9700 327° Northwest 465 535 36,000  Level FlightAware ADS-B
Sat 03:11:47 AM 13.3350 -63.0260 327° Northwest 463 533 36,000  Level FlightAware ADS-B
Sat 03:12:27 AM 13.4070 -63.0740 327° Northwest 462 532 36,000  Level FlightAware ADS-B
Sat 03:13:02 AM 13.4610 -63.1100 327° Northwest 462 532 36,000  Level FlightAware ADS-B
Sat 03:13:47 AM 13.5340 -63.1610 326° Northwest 462 532 36,000  Level FlightAware ADS-B
Sat 03:14:32 AM 13.6280 -63.2220 328° Northwest 458 527 36,000  Level FlightAware ADS-B
Sat 03:15:12 AM 13.7030 -63.2720 327° Northwest 457 526 36,000  Level FlightAware ADS-B
Sat 03:15:57 AM 13.7830 -63.3250 327° Northwest 457 526 36,000  Level FlightAware ADS-B
Sat 03:16:37 AM 13.8530 -63.3720 327° Northwest 456 525 36,000  Level FlightAware ADS-B
Sat 03:17:22 AM 13.9300 -63.4240 327° Northwest 455 524 36,000  Level FlightAware ADS-B
Sat 03:18:02 AM 14.0010 -63.4710 327° Northwest 455 524 36,000  Level FlightAware ADS-B
Sat 03:18:47 AM 14.0820 -63.5260 327° Northwest 454 522 36,000  Level FlightAware ADS-B
Sat 03:19:22 AM 14.1370 -63.5630 327° Northwest 454 522 36,000  Level FlightAware ADS-B
Sat 03:20:07 AM 14.2170 -63.6170 327° Northwest 454 522 36,000  Level FlightAware ADS-B
Sat 03:20:47 AM 14.2890 -63.6660 327° Northwest 453 521 36,000  Level FlightAware ADS-B
Sat 03:21:32 AM 14.3710 -63.7210 327° Northwest 453 521 36,000  Level FlightAware ADS-B
Sat 03:22:12 AM 14.4420 -63.7690 327° Northwest 452 520 36,000  Level FlightAware ADS-B
Sat 03:22:52 AM 14.5120 -63.8160 327° Northwest 451 519 36,000  Level FlightAware ADS-B
Sat 03:23:32 AM 14.5770 -63.8600 327° Northwest 448 516 36,000  Level FlightAware ADS-B
Sat 03:24:37 AM 14.6950 -63.9390 327° Northwest 445 512 36,000  Level FlightAware ADS-B
Sat 03:25:12 AM 14.7550 -63.9800 327° Northwest 444 511 36,000  Level FlightAware ADS-B
Sat 03:25:57 AM 14.8260 -64.0290 326° Northwest 444 511 36,000  Level FlightAware ADS-B
Sat 03:26:37 AM 14.8840 -64.0690 326° Northwest 444 511 36,000  Level FlightAware ADS-B
Sat 03:27:27 AM 14.9850 -64.1360 327° Northwest 443 510 36,000  Level FlightAware ADS-B
Sat 03:29:02 AM 15.1250 -64.2380 325° Northwest 443 510 36,000  Level FlightAware ADS-B
Sat 03:29:42 AM 15.1820 -64.2790 325° Northwest 443 510 36,000  Level FlightAware ADS-B
Sat 03:30:22 AM 15.2390 -64.3210 325° Northwest 443 510 36,000  Level FlightAware ADS-B
Sat 03:31:12 AM 15.3100 -64.3720 325° Northwest 443 510 36,000  Level FlightAware ADS-B
Sat 03:31:52 AM 15.3670 -64.4140 325° Northwest 443 510 36,000  Level FlightAware ADS-B
Sat 03:32:32 AM 15.4240 -64.4550 325° Northwest 443 510 36,000  Level FlightAware ADS-B
Sat 03:33:12 AM 15.4820 -64.4970 325° Northwest 443 510 36,000  Level FlightAware ADS-B
Sat 03:33:52 AM 15.5390 -64.5380 325° Northwest 443 510 36,000  Level FlightAware ADS-B
Sat 03:34:42 AM 15.6100 -64.5900 325° Northwest 443 510 36,000  Level FlightAware ADS-B
Sat 03:35:22 AM 15.6670 -64.6320 325° Northwest 443 510 36,000  Level FlightAware ADS-B
Sat 03:36:02 AM 15.7240 -64.6730 325° Northwest 443 510 36,000  Level FlightAware ADS-B
Sat 03:36:42 AM 15.7810 -64.7150 325° Northwest 443 510 36,000  Level FlightAware ADS-B
Sat 03:37:22 AM 15.8380 -64.7560 325° Northwest 443 510 36,000  Level FlightAware ADS-B
Sat 03:38:34 AM 16.0500 -65.0333 325° Northwest 460 529 36,000  Level San Juan Center
Sat 03:39:35 AM 16.1500 -65.1000 327° Northwest 450 518 36,000  Level San Juan Center
Sat 03:40:35 AM 16.2333 -65.1833 316° Northwest 430 495 36,000  Level San Juan Center
Sat 03:41:35 AM 16.3333 -65.2500 327° Northwest 420 483 36,000  Level San Juan Center
Sat 03:47:47 AM 16.9260 -65.7590 327° Northwest 428 493 36,000  Level FlightAware ADS-B
Sat 03:48:22 AM 16.9730 -65.8010 319° Northwest 427 491 36,000  Level FlightAware ADS-B
Sat 03:49:02 AM 17.0250 -65.8460 320° Northwest 427 491 36,000  Level FlightAware ADS-B
Sat 03:49:52 AM 17.0890 -65.9020 320° Northwest 427 491 36,000  Level FlightAware ADS-B
Sat 03:50:22 AM 17.1670 -65.9630 323° Northwest 424 488 36,000  Level FlightAware ADS-B
Sat 03:51:07 AM 17.2250 -66.0150 319° Northwest 424 488 36,000  Level FlightAware ADS-B
Sat 03:51:52 AM 17.3030 -66.0800 321° Northwest 424 488 36,000  Level FlightAware ADS-B
Sat 03:52:37 AM 17.3680 -66.1350 321° Northwest 423 487 36,000  Level FlightAware ADS-B
Sat 03:53:12 AM 17.4250 -66.1840 321° Northwest 423 487 36,000  Level FlightAware ADS-B
Sat 03:53:57 AM 17.4830 -66.2350 320° Northwest 423 487 36,000  Level FlightAware ADS-B
Sat 03:54:37 AM 17.5340 -66.2800 320° Northwest 423 487 36,000  Level FlightAware ADS-B
Sat 03:55:27 AM 17.6280 -66.3580 322° Northwest 422 486 36,000  Level FlightAware ADS-B
Sat 03:56:07 AM 17.6880 -66.4090 321° Northwest 422 486 36,000  Level FlightAware ADS-B
Sat 03:56:52 AM 17.7580 -66.4690 321° Northwest 421 484 36,000  Level FlightAware ADS-B
Sat 03:57:27 AM 17.8070 -66.5110 321° Northwest 420 483 36,000  Level FlightAware ADS-B
Sat 03:58:17 AM 17.8840 -66.5780 320° Northwest 421 484 36,000  Level FlightAware ADS-B
Sat 03:58:57 AM 17.9450 -66.6300 321° Northwest 420 483 36,000  Level FlightAware ADS-B
Sat 03:59:37 AM 18.0040 -66.6810 321° Northwest 420 483 36,000  Level FlightAware ADS-B
Sat 04:00:22 AM 18.0740 -66.7410 321° Northwest 420 483 36,000  Level FlightAware ADS-B
Sat 04:01:02 AM 18.1340 -66.7930 321° Northwest 420 483 36,000  Level FlightAware ADS-B
Sat 04:01:47 AM 18.2010 -66.8510 321° Northwest 420 483 36,000  Level FlightAware ADS-B
Sat 04:02:27 AM 18.2600 -66.9020 321° Northwest 420 483 36,000  Level FlightAware ADS-B
Sat 04:03:07 AM 18.3210 -66.9550 320° Northwest 420 483 36,000  Level FlightAware ADS-B
Sat 04:03:52 AM 18.3900 -67.0140 321° Northwest 420 483 36,000  Level FlightAware ADS-B
Sat 04:04:32 AM 18.4500 -67.0660 321° Northwest 420 483 36,000  Level FlightAware ADS-B
Sat 04:05:17 AM 18.5110 -67.1270 317° Northwest 415 478 36,000  Level FlightAware ADS-B
Sat 04:05:47 AM 18.5470 -67.1730 310° West 414 476 36,000  Level FlightAware ADS-B
Sat 04:06:32 AM 18.5940 -67.2360 308° West 414 476 36,000  Level FlightAware ADS-B
Sat 04:07:22 AM 18.6440 -67.3040 308° West 414 476 36,000  Level FlightAware ADS-B
Sat 04:08:02 AM 18.6840 -67.3580 308° West 414 476 36,000  Level FlightAware ADS-B
Sat 04:08:42 AM 18.7240 -67.4130 308° West 414 476 36,000  Level FlightAware ADS-B
Sat 04:09:22 AM 18.7640 -67.4670 308° West 414 476 36,000  Level FlightAware ADS-B
Sat 04:10:02 AM 18.8040 -67.5210 308° West 414 476 36,000  Level FlightAware ADS-B
Sat 04:10:52 AM 18.9130 -67.6600 310° West 415 478 36,000  Level FlightAware ADS-B
Sat 04:11:42 AM 18.9690 -67.7350 308° West 415 478 36,000  Level FlightAware ADS-B
Sat 04:12:22 AM 19.0090 -67.7890 308° West 415 478 36,000  Level FlightAware ADS-B
Sat 04:13:12 AM 19.0590 -67.8570 308° West 415 478 36,000  Level FlightAware ADS-B
Sat 04:13:52 AM 19.0990 -67.9120 308° West 415 478 36,000  Level FlightAware ADS-B
Sat 04:14:32 AM 19.1400 -67.9660 309° West 415 478 36,000  Level FlightAware ADS-B
Sat 04:15:12 AM 19.1800 -68.0210 308° West 415 478 36,000  Level FlightAware ADS-B
Sat 04:15:52 AM 19.2200 -68.0750 308° West 415 478 36,000  Level FlightAware ADS-B
Sat 04:16:42 AM 19.2700 -68.1430 308° West 415 478 36,000  Level FlightAware ADS-B
Sat 04:17:22 AM 19.3100 -68.1980 308° West 415 478 36,000  Level FlightAware ADS-B
Sat 04:18:02 AM 19.3510 -68.2520 309° West 415 478 36,000  Level FlightAware ADS-B
Sat 04:18:42 AM 19.3910 -68.3070 308° West 415 478 36,000  Level FlightAware ADS-B
Sat 04:19:22 AM 19.4310 -68.3610 308° West 415 478 36,000  Level FlightAware ADS-B
Sat 04:20:12 AM 19.4810 -68.4300 308° West 415 478 36,000  Level FlightAware ADS-B
Sat 04:20:52 AM 19.5210 -68.4840 308° West 415 478 36,000 288 Level FlightAware ADS-B
Sat 04:23:00 AM 19.6274 -68.7308 295° West  Level FlightAware Approximate
Sat 04:24:00 AM 19.6771 -68.8466 295° West  Level FlightAware Approximate
Sat 04:25:00 AM 19.7268 -68.9625 295° West  Level FlightAware Approximate
Sat 04:26:00 AM 19.7779 -69.0813 302° West  Level FlightAware Approximate
Sat 04:27:00 AM 19.8409 -69.1896 302° West  Level FlightAware Approximate
Sat 04:27:09 AM 19.9169 -69.2725 302° West 408 470 38,000  Level Miami Center
Sat 04:28:00 AM 19.9039 -69.2981 302° West  Level FlightAware Approximate
Sat 04:29:00 AM 19.9668 -69.4066 302° West  Level FlightAware Approximate
Sat 04:29:00 AM 20.0348 -69.4724 302° West  Level Estimated
Sat 04:30:00 AM 20.0296 -69.5152 302° West  Level FlightAware Approximate
Sat 04:31:00 AM 20.0924 -69.6239 302° West  Level FlightAware Approximate
Sat 04:32:00 AM 20.1551 -69.7327 302° West  Level FlightAware Approximate
Sat 04:34:11 AM 20.3244 -69.9789 302° West 402 463 38,000  Level Miami Center
Sat 04:35:11 AM 20.3808 -70.0778 301° West 397 457 38,000  Level Miami Center
Sat 04:36:00 AM 20.4786 -70.2314 302° West  Level Estimated
Sat 04:36:11 AM 20.4372 -70.1789 301° West 397 457 38,000  Level Miami Center
Sat 04:37:00 AM 20.5417 -70.3402 302° West  Level Estimated
Sat 04:38:00 AM 20.6047 -70.4491 302° West  Level Estimated
Sat 04:38:09 AM 20.5453 -70.3681 301° West 397 457 38,000  Level Miami Center
Sat 04:39:00 AM 20.6677 -70.5580 302° West  Level Estimated
Sat 04:40:09 AM 20.6622 -70.5731 301° West 402 463 38,000  Level Miami Center
Sat 04:42:00 AM 20.7755 -70.7768 301° West  Level FlightAware Approximate
Sat 04:44:09 AM 20.8908 -70.9817 301° West 402 463 38,000  Level Miami Center
Sat 04:46:00 AM 21.0070 -71.1839 302° West  Level Estimated
Sat 04:49:00 AM 21.2021 -71.5507 301° West  Level FlightAware Approximate
Sat 04:49:09 AM 21.1786 -71.4961 301° West 409 471 38,000  Level Miami Center
Sat 04:51:00 AM 21.2902 -71.7017 300° West  Level FlightAware Approximate
Sat 04:52:10 AM 21.3475 -71.7989 300° West 409 471 38,000  Level Miami Center
Sat 04:53:00 AM 21.4445 -71.9520 302° West  Level Estimated
Sat 04:54:00 AM 21.5067 -72.0621 301° West  Level Estimated
Sat 04:54:11 AM 21.4647 -72.0083 301° West 398 458 38,100  Level Miami Center
Sat 04:55:12 AM 21.5181 -72.1114 299° West 398 458 38,000 -50 Descending Miami Center
Sat 04:56:12 AM 21.5733 -72.2119 301° West 392 451 38,000  Level Miami Center
Sat 04:58:00 AM 21.6799 -72.4137 300° West  Level FlightAware Approximate
Sat 05:00:09 AM 21.7917 -72.6133 300° West 387 445 38,000  Level Miami Center
Sat 05:02:00 AM 21.9064 -72.8178 301° West  Level Estimated
Sat 05:03:11 AM 21.9564 -72.9169 301° West 387 445 38,000  Level Miami Center
Sat 05:05:00 AM 22.0921 -73.2014 300° West  Level FlightAware Approximate
Sat 05:05:00 AM 22.0607 -73.1225 299° West  Level FlightAware Approximate
Sat 05:07:09 AM 22.1792 -73.3225 300° West 387 445 38,000  Level Miami Center
Sat 05:08:09 AM 22.2317 -73.4244 299° West 387 445 38,000  Level Miami Center
Sat 05:09:09 AM 22.2797 -73.5242 298° West 387 445 38,000  Level Miami Center
Sat 05:11:00 AM 22.3899 -73.7309 300° West  Level FlightAware Approximate
Sat 05:12:00 AM 22.4792 -73.9061 300° West  Level FlightAware Approximate
Sat 05:12:11 AM 22.4450 -73.8322 300° West 392 451 38,000  Level Miami Center
Sat 05:13:10 AM 22.4972 -73.9342 299° West 392 451 38,000  Level Miami Center
Sat 05:15:00 AM 22.6060 -74.1396 300° West  Level FlightAware Approximate
Sat 05:18:09 AM 22.7672 -74.4464 299° West 387 445 38,000  Level Miami Center
Sat 05:19:11 AM 22.8211 -74.5467 300° West 387 445 38,000  Level Miami Center
Sat 05:20:12 AM 22.8728 -74.6494 299° West 387 445 38,000  Level Miami Center
Sat 05:22:00 AM 23.0189 -74.9272 300° West  Level FlightAware Approximate
Sat 05:22:00 AM 22.9825 -74.8499 301° West  Level Estimated
Sat 05:23:00 AM 23.0776 -75.0401 299° West  Level FlightAware Approximate
Sat 05:23:09 AM 23.0358 -74.9558 301° West 387 445 38,000  Level Miami Center
Sat 05:24:12 AM 23.0892 -75.0589 299° West 387 445 38,000  Level Miami Center
Sat 05:26:00 AM 23.1943 -75.2626 299° West  Level FlightAware Approximate
Sat 05:27:09 AM 23.2514 -75.3711 299° West 387 445 38,000  Level Miami Center
Sat 05:28:12 AM 23.3025 -75.4744 298° West 387 445 38,000  Level Miami Center
Sat 05:29:10 AM 23.3558 -75.5781 299° West 387 445 38,000  Level Miami Center
Sat 05:30:11 AM 23.4067 -75.6794 299° West 387 445 38,000  Level Miami Center
Sat 05:31:10 AM 23.4639 -75.7919 299° West 402 463 38,000  Level Miami Center
Sat 05:32:09 AM 23.5147 -75.8914 299° West 412 474 38,000  Level Miami Center
Sat 05:33:12 AM 23.5678 -75.9928 300° West 412 474 38,000  Level Miami Center
Sat 05:34:09 AM 23.6206 -76.0969 299° West 400 460 38,000  Level Miami Center
Sat 05:35:10 AM 23.6753 -76.2031 299° West 395 455 38,000  Level Miami Center
Sat 05:36:12 AM 23.7281 -76.3072 299° West 395 455 38,000  Level Miami Center
Sat 05:37:10 AM 23.7806 -76.4139 298° West 395 455 38,000  Level Miami Center
Sat 05:38:10 AM 23.8331 -76.5158 299° West 395 455 38,000  Level Miami Center
Sat 05:40:09 AM 23.9381 -76.7269 299° West 395 455 38,000  Level Miami Center
Sat 05:42:11 AM 24.0406 -76.9361 298° West 390 449 38,000  Level Miami Center
Sat 05:43:10 AM 24.0928 -77.0386 299° West 390 449 38,000  Level Miami Center
Sat 05:44:09 AM 24.1447 -77.1458 298° West 385 443 38,000  Level Miami Center
Sat 05:45:09 AM 24.1967 -77.2531 298° West 391 450 38,000  Level Miami Center
Sat 05:46:10 AM 24.2486 -77.3581 298° West 391 450 38,000  Level Miami Center
Sat 05:48:00 AM 24.3533 -77.5690 299° West  Level FlightAware Approximate
Sat 05:51:10 AM 24.5072 -77.8844 295° West 386 444 38,000  Level Miami Center
Sat 05:52:11 AM 24.5586 -77.9897 298° West 386 444 38,000  Level Miami Center
Sat 05:53:09 AM 24.6122 -78.0956 299° West 386 444 38,000  Level Miami Center
Sat 05:55:00 AM 24.7462 -78.3797 295° West  Level FlightAware Approximate
Sat 05:55:10 AM 24.7147 -78.3092 298° West 391 450 38,000  Level Miami Center
Sat 05:56:00 AM 24.7971 -78.4986 295° West  Level FlightAware Approximate
Sat 05:57:09 AM 24.8211 -78.5211 299° West 391 450 38,000  Level Miami Center
Sat 05:59:09 AM 24.9189 -78.7333 297° West 391 450 34,700 -2,067 Descending Miami Center
Sat 06:00:09 AM 24.9739 -78.8442 299° West 396 456 31,800 -2,533 Descending Miami Center
Sat 06:02:09 AM 25.0794 -79.0639 298° West 390 449 27,100 -2,367 Descending Miami Center
Sat 06:03:09 AM 25.1261 -79.1678 296° West 384 442 24,700 -2,258 Descending Miami Center
Sat 06:08:37 AM 25.3790 -79.7000 296° West 330 380 12,500 -1,995 Descending FlightAware ADS-B
Sat 06:10:07 AM 25.4510 -79.8180 304° West 306 352 10,800 -1,050 Descending FlightAware ADS-B
Sat 06:11:17 AM 25.5060 -79.9010 306° West 272 313 9,700 -814 Descending FlightAware ADS-B
Sat 06:12:27 AM 25.5560 -79.9770 306° West 258 297 8,900 -343 Descending FlightAware ADS-B
Sat 06:13:37 AM 25.6070 -80.0540 306° West 260 299 8,900  Level FlightAware ADS-B
Sat 06:14:57 AM 25.6630 -80.1440 305° West 262 302 8,900 -578 Level FlightAware ADS-B
Sat 06:15:52 AM 25.6820 -80.2140 287° West 256 295 7,600 -2,100 Descending FlightAware ADS-B
Sat 06:17:17 AM 25.7090 -80.3200 286° West 244 281 4,000 -2,296 Descending FlightAware ADS-B
Sat 06:17:47 AM 25.7080 -80.3610 268° West 238 274 3,200 -943 Descending FlightAware ADS-B
Sat 06:18:27 AM 25.7070 -80.4040 269° West 215 247 2,900 -164 Descending FlightAware ADS-B
Sat 06:19:37 AM 25.7240 -80.4630 288° West 185 213 2,900 -400 Level FlightAware ADS-B
Sat 06:20:57 AM 25.7800 -80.4310 27° Northeast 177 204 1,900 -774 Descending FlightAware ADS-B
Sat 06:22:12 AM 25.7840 -80.3710 86° East 137 158 900 -658 Descending FlightAware ADS-B
Sat 06:23:32 AM 25.7850 -80.3140 89° East 139 160 200 -525 Descending FlightAware ADS-B

Login

Don't have an account? Register now (free) for customized features, flight alerts, and more!